sensor_id;sensor_type;location;lat;lon;timestamp;pressure;altitude;pressure_sealevel;temperature;humidity
56558;BME280;43358;50.356;12.456;2023-03-02T00:00:13;95977;;;-3.4;94.8
56558;BME280;43358;50.356;12.456;2023-03-02T00:01:15;95975;;;-3.4;94.8
56558;BME280;43358;50.356;12.456;2023-03-02T00:02:17;95970;;;-3.5;94.8
56558;BME280;43358;50.356;12.456;2023-03-02T00:03:19;95975;;;-3.5;95
56558;BME280;43358;50.356;12.456;2023-03-02T00:04:23;95970;;;-3.5;95.1
56558;BME280;43358;50.356;12.456;2023-03-02T00:05:23;95968;;;-3.5;95.2
56558;BME280;43358;50.356;12.456;2023-03-02T00:06:25;95974;;;-3.5;95.8
56558;BME280;43358;50.356;12.456;2023-03-02T00:07:28;95972;;;-3.5;95.4
56558;BME280;43358;50.356;12.456;2023-03-02T00:08:29;95976;;;-3.5;95.4
56558;BME280;43358;50.356;12.456;2023-03-02T00:09:31;95975;;;-3.4;95.8
56558;BME280;43358;50.356;12.456;2023-03-02T00:10:33;95971;;;-3.4;95.1
56558;BME280;43358;50.356;12.456;2023-03-02T00:11:35;95972;;;-3.4;94.8
56558;BME280;43358;50.356;12.456;2023-03-02T00:12:37;95967;;;-3.5;94.8
56558;BME280;43358;50.356;12.456;2023-03-02T00:14:41;95966;;;-3.5;94.7
56558;BME280;43358;50.356;12.456;2023-03-02T00:15:43;95966;;;-3.5;94.6
56558;BME280;43358;50.356;12.456;2023-03-02T00:16:45;95967;;;-3.5;94.4
56558;BME280;43358;50.356;12.456;2023-03-02T00:17:47;95966;;;-3.5;94.7
56558;BME280;43358;50.356;12.456;2023-03-02T00:18:49;95966;;;-3.5;94.6
56558;BME280;43358;50.356;12.456;2023-03-02T00:19:51;95968;;;-3.5;94.6
56558;BME280;43358;50.356;12.456;2023-03-02T00:20:53;95967;;;-3.6;94.4
56558;BME280;43358;50.356;12.456;2023-03-02T00:21:55;95967;;;-3.6;94.5
56558;BME280;43358;50.356;12.456;2023-03-02T00:22:57;95970;;;-3.6;94.6
56558;BME280;43358;50.356;12.456;2023-03-02T00:23:59;95971;;;-3.6;94.6
56558;BME280;43358;50.356;12.456;2023-03-02T00:25:01;95969;;;-3.6;94.6
56558;BME280;43358;50.356;12.456;2023-03-02T00:26:03;95964;;;-3.6;95.3
56558;BME280;43358;50.356;12.456;2023-03-02T00:27:05;95969;;;-3.6;95.2
56558;BME280;43358;50.356;12.456;2023-03-02T00:28:07;95967;;;-3.6;94.9
56558;BME280;43358;50.356;12.456;2023-03-02T00:29:09;95961;;;-3.6;94.9
56558;BME280;43358;50.356;12.456;2023-03-02T00:30:12;95963;;;-3.6;95
56558;BME280;43358;50.356;12.456;2023-03-02T00:31:13;95956;;;-3.7;95.1
56558;BME280;43358;50.356;12.456;2023-03-02T00:32:15;95961;;;-3.7;95
56558;BME280;43358;50.356;12.456;2023-03-02T00:33:17;95960;;;-3.7;95.2
56558;BME280;43358;50.356;12.456;2023-03-02T00:34:19;95959;;;-3.7;95
56558;BME280;43358;50.356;12.456;2023-03-02T00:35:21;95960;;;-3.7;94.8
56558;BME280;43358;50.356;12.456;2023-03-02T00:36:23;95962;;;-3.7;94.8
56558;BME280;43358;50.356;12.456;2023-03-02T00:37:25;95958;;;-3.7;94.7
56558;BME280;43358;50.356;12.456;2023-03-02T00:38:27;95962;;;-3.8;94.6
56558;BME280;43358;50.356;12.456;2023-03-02T00:39:29;95959;;;-3.8;94.6
56558;BME280;43358;50.356;12.456;2023-03-02T00:40:31;95963;;;-3.8;95
56558;BME280;43358;50.356;12.456;2023-03-02T00:41:33;95960;;;-3.7;95.1
56558;BME280;43358;50.356;12.456;2023-03-02T00:42:35;95962;;;-3.8;94.7
56558;BME280;43358;50.356;12.456;2023-03-02T00:43:37;95960;;;-3.8;94.7
56558;BME280;43358;50.356;12.456;2023-03-02T00:44:39;95965;;;-3.8;94.7
56558;BME280;43358;50.356;12.456;2023-03-02T00:45:41;95963;;;-3.8;94.8
56558;BME280;43358;50.356;12.456;2023-03-02T00:46:43;95960;;;-3.8;95
56558;BME280;43358;50.356;12.456;2023-03-02T00:47:45;95962;;;-3.8;95.1
56558;BME280;43358;50.356;12.456;2023-03-02T00:48:47;95960;;;-3.8;95
56558;BME280;43358;50.356;12.456;2023-03-02T00:49:50;95963;;;-3.8;95
56558;BME280;43358;50.356;12.456;2023-03-02T00:50:52;95963;;;-3.8;94.9
56558;BME280;43358;50.356;12.456;2023-03-02T00:51:54;95967;;;-3.8;95
56558;BME280;43358;50.356;12.456;2023-03-02T00:52:56;95963;;;-3.9;95
56558;BME280;43358;50.356;12.456;2023-03-02T00:53:58;95959;;;-3.9;94.9
56558;BME280;43358;50.356;12.456;2023-03-02T00:55:00;95965;;;-3.9;94.8
56558;BME280;43358;50.356;12.456;2023-03-02T00:56:03;95958;;;-3.9;94.9
56558;BME280;43358;50.356;12.456;2023-03-02T00:57:04;95955;;;-3.9;94.8
56558;BME280;43358;50.356;12.456;2023-03-02T00:58:06;95958;;;-3.9;94.7
56558;BME280;43358;50.356;12.456;2023-03-02T00:59:09;95957;;;-3.9;95.1
56558;BME280;43358;50.356;12.456;2023-03-02T01:00:10;95960;;;-3.9;95.4
56558;BME280;43358;50.356;12.456;2023-03-02T01:02:14;95954;;;-3.9;95
56558;BME280;43358;50.356;12.456;2023-03-02T01:03:16;95952;;;-3.9;94.9
56558;BME280;43358;50.356;12.456;2023-03-02T01:04:19;95948;;;-3.9;94.7
56558;BME280;43358;50.356;12.456;2023-03-02T01:05:21;95946;;;-3.9;94.8
56558;BME280;43358;50.356;12.456;2023-03-02T01:06:23;95953;;;-3.9;94.7
56558;BME280;43358;50.356;12.456;2023-03-02T01:07:25;95949;;;-4;94.8
56558;BME280;43358;50.356;12.456;2023-03-02T01:08:27;95949;;;-4;94.8
56558;BME280;43358;50.356;12.456;2023-03-02T01:09:29;95950;;;-3.9;94.8
56558;BME280;43358;50.356;12.456;2023-03-02T01:10:31;95948;;;-3.9;94.7
56558;BME280;43358;50.356;12.456;2023-03-02T01:11:33;95950;;;-3.9;95
56558;BME280;43358;50.356;12.456;2023-03-02T01:12:35;95950;;;-3.9;95.1
56558;BME280;43358;50.356;12.456;2023-03-02T01:13:37;95948;;;-3.9;94.9
56558;BME280;43358;50.356;12.456;2023-03-02T01:14:40;95952;;;-3.8;95.6
56558;BME280;43358;50.356;12.456;2023-03-02T01:15:41;95950;;;-3.8;95
56558;BME280;43358;50.356;12.456;2023-03-02T01:16:43;95950;;;-3.8;94.6
56558;BME280;43358;50.356;12.456;2023-03-02T01:17:45;95949;;;-3.9;94.5
56558;BME280;43358;50.356;12.456;2023-03-02T01:18:47;95944;;;-3.9;94.5
56558;BME280;43358;50.356;12.456;2023-03-02T01:19:49;95940;;;-3.9;94.5
56558;BME280;43358;50.356;12.456;2023-03-02T01:21:00;95940;;;-4;94.6
56558;BME280;43358;50.356;12.456;2023-03-02T01:22:00;95934;;;-4;94.6
56558;BME280;43358;50.356;12.456;2023-03-02T01:23:02;95943;;;-4;94.4
56558;BME280;43358;50.356;12.456;2023-03-02T01:24:04;95942;;;-4;94.3
56558;BME280;43358;50.356;12.456;2023-03-02T01:25:06;95937;;;-4;94.5
56558;BME280;43358;50.356;12.456;2023-03-02T01:26:08;95939;;;-4;94.4
56558;BME280;43358;50.356;12.456;2023-03-02T01:27:10;95938;;;-4.1;94.3
56558;BME280;43358;50.356;12.456;2023-03-02T01:28:13;95939;;;-4.1;94.4
56558;BME280;43358;50.356;12.456;2023-03-02T01:29:15;95942;;;-4.1;94.6
56558;BME280;43358;50.356;12.456;2023-03-02T01:30:17;95939;;;-4.1;94.3
56558;BME280;43358;50.356;12.456;2023-03-02T01:31:19;95936;;;-4.1;94.2
56558;BME280;43358;50.356;12.456;2023-03-02T01:32:21;95939;;;-4.1;94.2
56558;BME280;43358;50.356;12.456;2023-03-02T01:33:23;95934;;;-4.1;94.2
56558;BME280;43358;50.356;12.456;2023-03-02T01:34:25;95934;;;-4.1;94.2
56558;BME280;43358;50.356;12.456;2023-03-02T01:35:27;95930;;;-4.1;94.7
56558;BME280;43358;50.356;12.456;2023-03-02T01:36:29;95932;;;-4.1;94.8
56558;BME280;43358;50.356;12.456;2023-03-02T01:37:31;95928;;;-4;95.3
56558;BME280;43358;50.356;12.456;2023-03-02T01:38:33;95930;;;-4;95.5
56558;BME280;43358;50.356;12.456;2023-03-02T01:39:35;95933;;;-3.9;95.3
56558;BME280;43358;50.356;12.456;2023-03-02T01:40:37;95930;;;-3.9;94.7
56558;BME280;43358;50.356;12.456;2023-03-02T01:41:39;95935;;;-3.9;94.4
56558;BME280;43358;50.356;12.456;2023-03-02T01:42:45;95932;;;-3.9;94.6
56558;BME280;43358;50.356;12.456;2023-03-02T01:43:43;95932;;;-3.9;94.8
56558;BME280;43358;50.356;12.456;2023-03-02T01:44:47;95935;;;-3.9;94.8
56558;BME280;43358;50.356;12.456;2023-03-02T01:45:49;95933;;;-3.9;94.2
56558;BME280;43358;50.356;12.456;2023-03-02T01:46:50;95936;;;-4;94.2
56558;BME280;43358;50.356;12.456;2023-03-02T01:47:52;95933;;;-4;94.3
56558;BME280;43358;50.356;12.456;2023-03-02T01:48:55;95932;;;-4.1;94.4
56558;BME280;43358;50.356;12.456;2023-03-02T01:49:57;95933;;;-4.1;94.4
56558;BME280;43358;50.356;12.456;2023-03-02T01:50:58;95934;;;-4.2;94.4
56558;BME280;43358;50.356;12.456;2023-03-02T01:52:00;95929;;;-4.2;94.7
56558;BME280;43358;50.356;12.456;2023-03-02T01:53:02;95929;;;-4.2;95
56558;BME280;43358;50.356;12.456;2023-03-02T01:54:05;95924;;;-4.2;95.1
56558;BME280;43358;50.356;12.456;2023-03-02T01:56:08;95917;;;-4.2;94.9
56558;BME280;43358;50.356;12.456;2023-03-02T01:57:10;95921;;;-4.2;94.9
56558;BME280;43358;50.356;12.456;2023-03-02T01:58:12;95923;;;-4.3;95
56558;BME280;43358;50.356;12.456;2023-03-02T01:59:15;95919;;;-4.2;95.4
56558;BME280;43358;50.356;12.456;2023-03-02T02:00:17;95918;;;-4.2;95.2
56558;BME280;43358;50.356;12.456;2023-03-02T02:02:20;95921;;;-4.3;94.8
56558;BME280;43358;50.356;12.456;2023-03-02T02:03:23;95923;;;-4.3;94.8
56558;BME280;43358;50.356;12.456;2023-03-02T02:04:25;95922;;;-4.3;94.7
56558;BME280;43358;50.356;12.456;2023-03-02T02:06:30;95923;;;-4.4;94.8
56558;BME280;43358;50.356;12.456;2023-03-02T02:07:30;95917;;;-4.4;94.9
56558;BME280;43358;50.356;12.456;2023-03-02T02:08:32;95918;;;-4.4;94.9
56558;BME280;43358;50.356;12.456;2023-03-02T02:09:35;95920;;;-4.4;95
56558;BME280;43358;50.356;12.456;2023-03-02T02:10:36;95925;;;-4.4;94.9
56558;BME280;43358;50.356;12.456;2023-03-02T02:11:38;95919;;;-4.4;94.9
56558;BME280;43358;50.356;12.456;2023-03-02T02:12:40;95916;;;-4.4;95
56558;BME280;43358;50.356;12.456;2023-03-02T02:13:42;95920;;;-4.3;95.7
56558;BME280;43358;50.356;12.456;2023-03-02T02:14:44;95918;;;-4.2;95.2
56558;BME280;43358;50.356;12.456;2023-03-02T02:15:46;95915;;;-4.2;94.7
56558;BME280;43358;50.356;12.456;2023-03-02T02:16:49;95917;;;-4.2;94.4
56558;BME280;43358;50.356;12.456;2023-03-02T02:17:50;95916;;;-4.3;94.6
56558;BME280;43358;50.356;12.456;2023-03-02T02:18:52;95916;;;-4.2;95.2
56558;BME280;43358;50.356;12.456;2023-03-02T02:19:57;95915;;;-4.2;95.5
56558;BME280;43358;50.356;12.456;2023-03-02T02:20:56;95914;;;-4.3;95.5
56558;BME280;43358;50.356;12.456;2023-03-02T02:21:58;95913;;;-4.3;95.5
56558;BME280;43358;50.356;12.456;2023-03-02T02:23:04;95909;;;-4.3;95.4
56558;BME280;43358;50.356;12.456;2023-03-02T02:24:04;95909;;;-4.3;95.7
56558;BME280;43358;50.356;12.456;2023-03-02T02:25:05;95907;;;-4.2;95.2
56558;BME280;43358;50.356;12.456;2023-03-02T02:26:08;95909;;;-4.3;94.7
56558;BME280;43358;50.356;12.456;2023-03-02T02:27:08;95906;;;-4.3;94.7
56558;BME280;43358;50.356;12.456;2023-03-02T02:28:11;95905;;;-4.3;94.6
56558;BME280;43358;50.356;12.456;2023-03-02T02:29:13;95902;;;-4.3;94.5
56558;BME280;43358;50.356;12.456;2023-03-02T02:30:14;95899;;;-4.4;94.5
56558;BME280;43358;50.356;12.456;2023-03-02T02:31:18;95900;;;-4.4;94.8
56558;BME280;43358;50.356;12.456;2023-03-02T02:32:19;95900;;;-4.4;94.9
56558;BME280;43358;50.356;12.456;2023-03-02T02:33:21;95897;;;-4.4;94.6
56558;BME280;43358;50.356;12.456;2023-03-02T02:34:22;95899;;;-4.4;94.5
56558;BME280;43358;50.356;12.456;2023-03-02T02:35:24;95901;;;-4.4;94.5
56558;BME280;43358;50.356;12.456;2023-03-02T02:36:28;95893;;;-4.5;94.7
56558;BME280;43358;50.356;12.456;2023-03-02T02:37:29;95895;;;-4.5;94.9
56558;BME280;43358;50.356;12.456;2023-03-02T02:38:30;95894;;;-4.5;95
56558;BME280;43358;50.356;12.456;2023-03-02T02:39:33;95893;;;-4.5;95.1
56558;BME280;43358;50.356;12.456;2023-03-02T02:40:37;95892;;;-4.4;96
56558;BME280;43358;50.356;12.456;2023-03-02T02:41:37;95891;;;-4.4;96.5
56558;BME280;43358;50.356;12.456;2023-03-02T02:42:40;95891;;;-4.4;95.7
56558;BME280;43358;50.356;12.456;2023-03-02T02:43:41;95890;;;-4.4;95.5
56558;BME280;43358;50.356;12.456;2023-03-02T02:45:47;95888;;;-4.4;95.2
56558;BME280;43358;50.356;12.456;2023-03-02T02:46:48;95889;;;-4.5;95.2
56558;BME280;43358;50.356;12.456;2023-03-02T02:47:50;95887;;;-4.5;95.2
56558;BME280;43358;50.356;12.456;2023-03-02T02:48:52;95884;;;-4.5;95.1
56558;BME280;43358;50.356;12.456;2023-03-02T02:49:54;95884;;;-4.5;95.1
56558;BME280;43358;50.356;12.456;2023-03-02T02:50:58;95884;;;-4.5;95
56558;BME280;43358;50.356;12.456;2023-03-02T02:52:00;95886;;;-4.6;95
56558;BME280;43358;50.356;12.456;2023-03-02T02:53:05;95880;;;-4.6;95
56558;BME280;43358;50.356;12.456;2023-03-02T02:54:04;95879;;;-4.6;95
56558;BME280;43358;50.356;12.456;2023-03-02T02:55:08;95878;;;-4.6;95
56558;BME280;43358;50.356;12.456;2023-03-02T02:56:08;95875;;;-4.6;94.9
56558;BME280;43358;50.356;12.456;2023-03-02T02:57:10;95875;;;-4.6;95
56558;BME280;43358;50.356;12.456;2023-03-02T02:58:16;95874;;;-4.6;94.9
56558;BME280;43358;50.356;12.456;2023-03-02T02:59:16;95869;;;-4.6;94.9
56558;BME280;43358;50.356;12.456;2023-03-02T03:00:18;95873;;;-4.6;94.9
56558;BME280;43358;50.356;12.456;2023-03-02T03:01:20;95869;;;-4.6;94.9
56558;BME280;43358;50.356;12.456;2023-03-02T03:02:22;95873;;;-4.6;94.9
56558;BME280;43358;50.356;12.456;2023-03-02T03:03:25;95868;;;-4.6;94.6
56558;BME280;43358;50.356;12.456;2023-03-02T03:04:26;95868;;;-4.7;94.5
56558;BME280;43358;50.356;12.456;2023-03-02T03:05:27;95871;;;-4.6;95.6
56558;BME280;43358;50.356;12.456;2023-03-02T03:06:30;95872;;;-4.5;95.9
56558;BME280;43358;50.356;12.456;2023-03-02T03:07:31;95875;;;-4.5;95.6
56558;BME280;43358;50.356;12.456;2023-03-02T03:09:05;95869;;;-4.6;95.4
56558;BME280;43358;50.356;12.456;2023-03-02T03:09:35;95875;;;-4.6;95.6
56558;BME280;43358;50.356;12.456;2023-03-02T03:10:37;95870;;;-4.6;95.7
56558;BME280;43358;50.356;12.456;2023-03-02T03:11:40;95867;;;-4.6;95.8
56558;BME280;43358;50.356;12.456;2023-03-02T03:12:41;95864;;;-4.6;95.7
56558;BME280;43358;50.356;12.456;2023-03-02T03:13:43;95865;;;-4.6;95.6
56558;BME280;43358;50.356;12.456;2023-03-02T03:14:45;95865;;;-4.6;95.6
56558;BME280;43358;50.356;12.456;2023-03-02T03:16:00;95862;;;-4.7;95.6
56558;BME280;43358;50.356;12.456;2023-03-02T03:16:49;95861;;;-4.6;95.6
56558;BME280;43358;50.356;12.456;2023-03-02T03:17:52;95864;;;-4.6;95.8
56558;BME280;43358;50.356;12.456;2023-03-02T03:18:53;95860;;;-4.5;95.5
56558;BME280;43358;50.356;12.456;2023-03-02T03:19:56;95864;;;-4.5;94.9
56558;BME280;43358;50.356;12.456;2023-03-02T03:21:00;95867;;;-4.4;95.2
56558;BME280;43358;50.356;12.456;2023-03-02T03:22:02;95868;;;-4.4;95.1
56558;BME280;43358;50.356;12.456;2023-03-02T03:23:04;95865;;;-4.3;94.7
56558;BME280;43358;50.356;12.456;2023-03-02T03:24:06;95861;;;-4.4;94.3
56558;BME280;43358;50.356;12.456;2023-03-02T03:25:08;95859;;;-4.5;94.4
56558;BME280;43358;50.356;12.456;2023-03-02T03:26:10;95863;;;-4.5;94.5
56558;BME280;43358;50.356;12.456;2023-03-02T03:27:13;95864;;;-4.5;94.7
56558;BME280;43358;50.356;12.456;2023-03-02T03:28:14;95860;;;-4.5;95.4
56558;BME280;43358;50.356;12.456;2023-03-02T03:29:17;95863;;;-4.5;96
56558;BME280;43358;50.356;12.456;2023-03-02T03:30:18;95860;;;-4.4;96.1
56558;BME280;43358;50.356;12.456;2023-03-02T03:31:20;95858;;;-4.4;95.8
56558;BME280;43358;50.356;12.456;2023-03-02T03:32:22;95858;;;-4.5;95.5
56558;BME280;43358;50.356;12.456;2023-03-02T03:33:24;95857;;;-4.4;95.5
56558;BME280;43358;50.356;12.456;2023-03-02T03:34:26;95853;;;-4.4;94.8
56558;BME280;43358;50.356;12.456;2023-03-02T03:35:28;95860;;;-4.4;94.6
56558;BME280;43358;50.356;12.456;2023-03-02T03:36:31;95859;;;-4.4;94.7
56558;BME280;43358;50.356;12.456;2023-03-02T03:37:33;95854;;;-4.5;94.4
56558;BME280;43358;50.356;12.456;2023-03-02T03:38:34;95852;;;-4.5;94.5
56558;BME280;43358;50.356;12.456;2023-03-02T03:39:36;95858;;;-4.6;95.1
56558;BME280;43358;50.356;12.456;2023-03-02T03:40:38;95857;;;-4.5;96
56558;BME280;43358;50.356;12.456;2023-03-02T03:41:41;95853;;;-4.5;95.9
56558;BME280;43358;50.356;12.456;2023-03-02T03:42:43;95856;;;-4.5;95.6
56558;BME280;43358;50.356;12.456;2023-03-02T03:43:45;95857;;;-4.5;95.7
56558;BME280;43358;50.356;12.456;2023-03-02T03:44:47;95860;;;-4.5;95.6
56558;BME280;43358;50.356;12.456;2023-03-02T03:45:49;95859;;;-4.6;95.4
56558;BME280;43358;50.356;12.456;2023-03-02T03:46:51;95860;;;-4.6;95.3
56558;BME280;43358;50.356;12.456;2023-03-02T03:47:53;95860;;;-4.7;95.5
56558;BME280;43358;50.356;12.456;2023-03-02T03:48:56;95861;;;-4.6;96
56558;BME280;43358;50.356;12.456;2023-03-02T03:49:59;95859;;;-4.6;95.7
56558;BME280;43358;50.356;12.456;2023-03-02T03:51:01;95859;;;-4.6;95.6
56558;BME280;43358;50.356;12.456;2023-03-02T03:52:03;95859;;;-4.7;95.7
56558;BME280;43358;50.356;12.456;2023-03-02T03:53:05;95860;;;-4.7;95.8
56558;BME280;43358;50.356;12.456;2023-03-02T03:54:07;95855;;;-4.7;96.1
56558;BME280;43358;50.356;12.456;2023-03-02T03:55:09;95854;;;-4.7;96.1
56558;BME280;43358;50.356;12.456;2023-03-02T03:56:11;95850;;;-4.7;96
56558;BME280;43358;50.356;12.456;2023-03-02T03:57:13;95854;;;-4.7;96.1
56558;BME280;43358;50.356;12.456;2023-03-02T03:58:15;95852;;;-4.8;96.2
56558;BME280;43358;50.356;12.456;2023-03-02T03:59:18;95852;;;-4.7;96.4
56558;BME280;43358;50.356;12.456;2023-03-02T04:00:20;95854;;;-4.7;96.3
56558;BME280;43358;50.356;12.456;2023-03-02T04:01:21;95855;;;-4.8;96.3
56558;BME280;43358;50.356;12.456;2023-03-02T04:02:23;95856;;;-4.8;96.1
56558;BME280;43358;50.356;12.456;2023-03-02T04:03:25;95855;;;-4.8;96.2
56558;BME280;43358;50.356;12.456;2023-03-02T04:04:29;95858;;;-4.8;96.1
56558;BME280;43358;50.356;12.456;2023-03-02T04:05:30;95854;;;-4.8;96.2
56558;BME280;43358;50.356;12.456;2023-03-02T04:06:32;95856;;;-4.8;96.3
56558;BME280;43358;50.356;12.456;2023-03-02T04:08:36;95857;;;-4.9;96.4
56558;BME280;43358;50.356;12.456;2023-03-02T04:09:38;95857;;;-4.9;96.4
56558;BME280;43358;50.356;12.456;2023-03-02T04:10:40;95861;;;-4.8;96.4
56558;BME280;43358;50.356;12.456;2023-03-02T04:11:43;95861;;;-4.8;96.2
56558;BME280;43358;50.356;12.456;2023-03-02T04:12:45;95859;;;-4.8;95.8
56558;BME280;43358;50.356;12.456;2023-03-02T04:13:47;95860;;;-4.9;95.8
56558;BME280;43358;50.356;12.456;2023-03-02T04:14:49;95862;;;-4.9;96
56558;BME280;43358;50.356;12.456;2023-03-02T04:15:51;95862;;;-4.9;96
56558;BME280;43358;50.356;12.456;2023-03-02T04:16:53;95857;;;-4.9;96
56558;BME280;43358;50.356;12.456;2023-03-02T04:17:56;95858;;;-4.9;95.9
56558;BME280;43358;50.356;12.456;2023-03-02T04:18:59;95861;;;-4.9;95.9
56558;BME280;43358;50.356;12.456;2023-03-02T04:20:01;95858;;;-4.9;96
56558;BME280;43358;50.356;12.456;2023-03-02T04:21:04;95860;;;-4.9;96.1
56558;BME280;43358;50.356;12.456;2023-03-02T04:22:06;95851;;;-4.9;96.1
56558;BME280;43358;50.356;12.456;2023-03-02T04:23:08;95856;;;-4.9;96
56558;BME280;43358;50.356;12.456;2023-03-02T04:24:10;95854;;;-4.9;96.2
56558;BME280;43358;50.356;12.456;2023-03-02T04:25:12;95848;;;-4.9;96.2
56558;BME280;43358;50.356;12.456;2023-03-02T04:26:14;95849;;;-4.8;96.3
56558;BME280;43358;50.356;12.456;2023-03-02T04:27:16;95853;;;-4.7;96.4
56558;BME280;43358;50.356;12.456;2023-03-02T04:28:18;95851;;;-4.7;95.8
56558;BME280;43358;50.356;12.456;2023-03-02T04:29:20;95846;;;-4.7;95.5
56558;BME280;43358;50.356;12.456;2023-03-02T04:30:24;95851;;;-4.8;95.3
56558;BME280;43358;50.356;12.456;2023-03-02T04:31:24;95851;;;-4.7;95.6
56558;BME280;43358;50.356;12.456;2023-03-02T04:32:26;95849;;;-4.6;94.9
56558;BME280;43358;50.356;12.456;2023-03-02T04:33:29;95853;;;-4.6;94.5
56558;BME280;43358;50.356;12.456;2023-03-02T04:34:31;95849;;;-4.7;94.5
56558;BME280;43358;50.356;12.456;2023-03-02T04:35:33;95850;;;-4.7;94.8
56558;BME280;43358;50.356;12.456;2023-03-02T04:36:36;95856;;;-4.7;95.1
56558;BME280;43358;50.356;12.456;2023-03-02T04:37:38;95856;;;-4.7;95.1
56558;BME280;43358;50.356;12.456;2023-03-02T04:38:40;95851;;;-4.7;95.1
56558;BME280;43358;50.356;12.456;2023-03-02T04:39:42;95857;;;-4.7;95
56558;BME280;43358;50.356;12.456;2023-03-02T04:40:44;95854;;;-4.6;95.1
56558;BME280;43358;50.356;12.456;2023-03-02T04:41:46;95852;;;-4.7;94.5
56558;BME280;43358;50.356;12.456;2023-03-02T04:42:48;95852;;;-4.7;94.4
56558;BME280;43358;50.356;12.456;2023-03-02T04:43:50;95852;;;-4.8;94.6
56558;BME280;43358;50.356;12.456;2023-03-02T04:44:52;95854;;;-4.8;94.9
56558;BME280;43358;50.356;12.456;2023-03-02T04:45:54;95858;;;-4.8;95.3
56558;BME280;43358;50.356;12.456;2023-03-02T04:46:58;95862;;;-4.8;95
56558;BME280;43358;50.356;12.456;2023-03-02T04:48:00;95861;;;-4.8;94.9
56558;BME280;43358;50.356;12.456;2023-03-02T04:49:03;95857;;;-4.9;94.8
56558;BME280;43358;50.356;12.456;2023-03-02T04:50:04;95860;;;-4.9;95
56558;BME280;43358;50.356;12.456;2023-03-02T04:51:07;95859;;;-4.9;95.4
56558;BME280;43358;50.356;12.456;2023-03-02T04:52:08;95855;;;-4.9;95.3
56558;BME280;43358;50.356;12.456;2023-03-02T04:53:10;95857;;;-4.9;95.3
56558;BME280;43358;50.356;12.456;2023-03-02T04:54:13;95853;;;-4.9;95.7
56558;BME280;43358;50.356;12.456;2023-03-02T04:55:14;95854;;;-4.9;95.5
56558;BME280;43358;50.356;12.456;2023-03-02T04:56:16;95860;;;-4.8;95.7
56558;BME280;43358;50.356;12.456;2023-03-02T04:57:18;95858;;;-4.8;95.5
56558;BME280;43358;50.356;12.456;2023-03-02T04:58:20;95856;;;-4.8;95
56558;BME280;43358;50.356;12.456;2023-03-02T04:59:23;95859;;;-4.8;95.2
56558;BME280;43358;50.356;12.456;2023-03-02T05:00:24;95858;;;-4.8;95.1
56558;BME280;43358;50.356;12.456;2023-03-02T05:01:26;95864;;;-4.8;94.7
56558;BME280;43358;50.356;12.456;2023-03-02T05:02:28;95864;;;-4.8;94.6
56558;BME280;43358;50.356;12.456;2023-03-02T05:03:30;95863;;;-4.9;94.8
56558;BME280;43358;50.356;12.456;2023-03-02T05:04:32;95864;;;-4.9;95
56558;BME280;43358;50.356;12.456;2023-03-02T05:05:34;95868;;;-4.9;95.4
56558;BME280;43358;50.356;12.456;2023-03-02T05:06:36;95868;;;-4.8;95.5
56558;BME280;43358;50.356;12.456;2023-03-02T05:07:38;95864;;;-4.8;95.6
56558;BME280;43358;50.356;12.456;2023-03-02T05:08:40;95864;;;-4.7;95.4
56558;BME280;43358;50.356;12.456;2023-03-02T05:09:42;95869;;;-4.7;95
56558;BME280;43358;50.356;12.456;2023-03-02T05:10:44;95867;;;-4.7;94.5
56558;BME280;43358;50.356;12.456;2023-03-02T05:11:46;95869;;;-4.8;94.6
56558;BME280;43358;50.356;12.456;2023-03-02T05:12:49;95864;;;-4.8;94.5
56558;BME280;43358;50.356;12.456;2023-03-02T05:13:52;95864;;;-4.8;94.4
56558;BME280;43358;50.356;12.456;2023-03-02T05:15:56;95869;;;-4.8;95.4
56558;BME280;43358;50.356;12.456;2023-03-02T05:16:59;95871;;;-4.8;95.1
56558;BME280;43358;50.356;12.456;2023-03-02T05:18:01;95869;;;-4.9;95.1
56558;BME280;43358;50.356;12.456;2023-03-02T05:19:04;95872;;;-4.9;95.3
56558;BME280;43358;50.356;12.456;2023-03-02T05:20:05;95868;;;-4.9;95.5
56558;BME280;43358;50.356;12.456;2023-03-02T05:21:08;95872;;;-4.9;96.1
56558;BME280;43358;50.356;12.456;2023-03-02T05:22:09;95869;;;-4.9;96
56558;BME280;43358;50.356;12.456;2023-03-02T05:23:12;95872;;;-4.9;95.5
56558;BME280;43358;50.356;12.456;2023-03-02T05:24:13;95873;;;-4.9;95.4
56558;BME280;43358;50.356;12.456;2023-03-02T05:25:15;95865;;;-4.9;95.3
56558;BME280;43358;50.356;12.456;2023-03-02T05:26:17;95873;;;-5;95.3
56558;BME280;43358;50.356;12.456;2023-03-02T05:27:19;95876;;;-4.9;95.6
56558;BME280;43358;50.356;12.456;2023-03-02T05:28:22;95870;;;-4.9;95.6
56558;BME280;43358;50.356;12.456;2023-03-02T05:29:23;95872;;;-4.9;94.9
56558;BME280;43358;50.356;12.456;2023-03-02T05:30:25;95872;;;-4.9;94.9
56558;BME280;43358;50.356;12.456;2023-03-02T05:31:28;95876;;;-5;94.8
56558;BME280;43358;50.356;12.456;2023-03-02T05:32:30;95878;;;-5;94.9
56558;BME280;43358;50.356;12.456;2023-03-02T05:33:32;95874;;;-5;95
56558;BME280;43358;50.356;12.456;2023-03-02T05:34:34;95876;;;-5.1;95.2
56558;BME280;43358;50.356;12.456;2023-03-02T05:35:36;95877;;;-5;95.8
56558;BME280;43358;50.356;12.456;2023-03-02T05:36:38;95878;;;-5;95.6
56558;BME280;43358;50.356;12.456;2023-03-02T05:37:40;95879;;;-5.1;95.4
56558;BME280;43358;50.356;12.456;2023-03-02T05:38:42;95879;;;-5.1;95.5
56558;BME280;43358;50.356;12.456;2023-03-02T05:39:44;95878;;;-5.1;95.7
56558;BME280;43358;50.356;12.456;2023-03-02T05:40:46;95879;;;-5.1;95.8
56558;BME280;43358;50.356;12.456;2023-03-02T05:41:48;95880;;;-5.1;96.3
56558;BME280;43358;50.356;12.456;2023-03-02T05:42:50;95881;;;-5;96.6
56558;BME280;43358;50.356;12.456;2023-03-02T05:43:52;95886;;;-4.9;96.1
56558;BME280;43358;50.356;12.456;2023-03-02T05:44:54;95881;;;-5;95.6
56558;BME280;43358;50.356;12.456;2023-03-02T05:45:56;95880;;;-5;95.4
56558;BME280;43358;50.356;12.456;2023-03-02T05:46:58;95884;;;-5;95.2
56558;BME280;43358;50.356;12.456;2023-03-02T05:48:00;95884;;;-5;95.4
56558;BME280;43358;50.356;12.456;2023-03-02T05:49:02;95887;;;-5;95.2
56558;BME280;43358;50.356;12.456;2023-03-02T05:50:05;95884;;;-5;95
56558;BME280;43358;50.356;12.456;2023-03-02T05:51:06;95885;;;-5.1;94.9
56558;BME280;43358;50.356;12.456;2023-03-02T05:52:08;95886;;;-5.1;95
56558;BME280;43358;50.356;12.456;2023-03-02T05:53:10;95888;;;-5.1;95.2
56558;BME280;43358;50.356;12.456;2023-03-02T05:54:12;95886;;;-5.1;95.2
56558;BME280;43358;50.356;12.456;2023-03-02T05:55:15;95887;;;-5.1;95.3
56558;BME280;43358;50.356;12.456;2023-03-02T05:56:16;95889;;;-5.2;95.3
56558;BME280;43358;50.356;12.456;2023-03-02T05:57:18;95887;;;-5.2;95.3